Time;durP1;ratioP1;P1;durP2;ratioP2;P2;SDS_P1;SDS_P2;PMS_P1;PMS_P2;Temp;Humidity;BMP_temperature;BMP_pressure;BME280_temperature;BME280_humidity;BME280_pressure;Samples;Min_cycle;Max_cycle;Signal;HPM_P1;HPM_P2
2022/09/17 00:01:00;;;;;;;9.90;5.50;;;;;;;8.82;75.29;98982.41;1592822;89;25746;-70
2022/09/17 00:03:28;;;;;;;7.00;4.95;;;;;;;8.79;75.43;98985.19;1593414;88;25554;-70
2022/09/17 00:06:01;;;;;;;6.30;4.55;;;;;;;8.77;75.57;98983.39;1608798;88;25467;-70
2022/09/17 00:08:28;;;;;;;6.95;5.12;;;;;;;8.74;75.68;98978.65;1593515;88;27422;-70
2022/09/17 00:10:54;;;;;;;7.40;5.28;;;;;;;8.73;75.93;98974.93;1607885;88;25796;-71
2022/09/17 00:13:21;;;;;;;7.60;5.00;;;;;;;8.71;76.00;98980.65;1620671;87;25485;-70
2022/09/17 00:15:47;;;;;;;9.85;5.47;;;;;;;8.72;76.19;98980.89;1620420;87;25846;-70
2022/09/17 00:18:15;;;;;;;9.30;5.08;;;;;;;8.71;76.42;98977.95;1620058;87;25645;-70
2022/09/17 00:20:45;;;;;;;6.03;4.93;;;;;;;8.73;76.61;98976.28;1620384;87;27454;-70
2022/09/17 00:23:13;;;;;;;5.80;4.22;;;;;;;8.75;76.70;98983.47;1629615;87;25812;-70
2022/09/17 00:25:44;;;;;;;5.90;4.45;;;;;;;8.76;76.79;98980.45;1632280;87;25439;-70
2022/09/17 00:28:14;;;;;;;5.78;4.50;;;;;;;8.76;76.79;98981.02;1624973;87;25781;-69
2022/09/17 00:30:43;;;;;;;7.90;4.60;;;;;;;8.77;77.05;98981.27;1620238;87;25678;-70
2022/09/17 00:33:18;;;;;;;6.78;5.03;;;;;;;8.78;77.04;98980.94;1619395;87;27348;-70
2022/09/17 00:35:59;;;;;;;6.05;4.40;;;;;;;8.78;77.13;98978.78;1621227;87;25578;-70
2022/09/17 00:38:26;;;;;;;6.40;4.55;;;;;;;8.79;77.33;98984.41;1570989;89;25494;-70
2022/09/17 00:40:53;;;;;;;8.08;5.00;;;;;;;8.80;77.06;98976.53;1574620;88;25823;-70
2022/09/17 00:43:42;;;;;;;6.22;4.80;;;;;;;8.80;77.43;98983.28;1620152;88;25650;-70
2022/09/17 00:46:32;;;;;;;8.08;4.40;;;;;;;8.78;77.28;98984.98;1620137;88;27598;-70
2022/09/17 00:49:19;;;;;;;;;;;;;;;8.78;77.36;98985.52;1624730;87;25703;-71
2022/09/17 00:52:00;;;;;;;5.78;4.10;;;;;;;8.79;77.44;98992.50;1614870;87;25522;-71
2022/09/17 00:54:27;;;;;;;6.65;4.37;;;;;;;8.77;77.36;98996.09;1612446;87;25614;-70
2022/09/17 00:56:55;;;;;;;7.83;4.65;;;;;;;8.78;77.23;98994.95;1625075;87;25599;-70
2022/09/17 00:59:23;;;;;;;6.45;5.15;;;;;;;8.75;77.76;98996.42;1573325;90;27367;-70
2022/09/17 01:01:49;;;;;;;5.92;4.90;;;;;;;8.75;77.65;98996.95;1612702;87;25441;-70
2022/09/17 01:04:24;;;;;;;8.55;4.85;;;;;;;8.72;77.57;98997.06;1611752;89;25459;-70
2022/09/17 01:07:34;;;;;;;6.72;4.30;;;;;;;8.70;77.85;98996.61;1610050;87;25759;-71
2022/09/17 01:10:17;;;;;;;7.05;4.42;;;;;;;8.69;77.78;98992.89;1635341;87;25612;-70
2022/09/17 01:13:10;;;;;;;7.70;4.47;;;;;;;8.65;77.97;99000.84;1637080;87;27932;-70
2022/09/17 01:16:08;;;;;;;9.15;4.42;;;;;;;8.63;78.12;99005.75;1628257;87;25554;-70
2022/09/17 01:18:55;;;;;;;6.45;4.80;;;;;;;8.64;78.55;99005.22;1572394;90;25607;-69
2022/09/17 01:21:29;;;;;;;6.45;4.40;;;;;;;8.62;78.46;99000.72;1587974;89;25699;-70
2022/09/17 01:24:32;;;;;;;7.55;4.40;;;;;;;8.60;78.63;98996.43;1580518;90;25452;-69
2022/09/17 01:27:43;;;;;;;8.28;4.40;;;;;;;8.63;78.58;98999.58;1585349;89;27407;-69
2022/09/17 01:30:21;;;;;;;8.25;4.50;;;;;;;8.60;78.66;98998.34;1699375;84;25459;-69
2022/09/17 01:33:20;;;;;;;8.43;4.12;;;;;;;8.59;78.59;98992.14;1724154;82;25668;-70
2022/09/17 01:36:16;;;;;;;5.55;4.17;;;;;;;8.61;78.72;98998.56;1711574;83;25699;-71
2022/09/17 01:38:57;;;;;;;5.70;3.87;;;;;;;8.62;78.70;98995.33;1721817;83;25740;-70
2022/09/17 01:41:54;;;;;;;5.83;3.95;;;;;;;8.62;78.67;98995.33;1695558;84;27544;-70
2022/09/17 01:44:48;;;;;;;5.33;3.87;;;;;;;8.63;78.84;98991.49;1705106;84;25732;-70
2022/09/17 01:47:20;;;;;;;7.55;4.40;;;;;;;8.61;78.90;98987.77;1706997;84;25526;-69
2022/09/17 01:49:51;;;;;;;5.55;4.00;;;;;;;8.62;78.98;98997.45;1677907;85;25675;-70
2022/09/17 01:52:19;;;;;;;6.75;4.05;;;;;;;8.60;78.67;98993.73;1678040;85;26139;-70
2022/09/17 01:54:50;;;;;;;7.55;4.00;;;;;;;8.59;78.77;98995.41;1678014;85;27319;-70
2022/09/17 01:57:32;;;;;;;6.00;3.92;;;;;;;8.59;79.07;98998.88;1706191;84;25587;-71
2022/09/17 02:00:10;;;;;;;7.35;3.55;;;;;;;8.57;78.99;98996.30;1693901;84;25650;-71
2022/09/17 02:02:57;;;;;;;6.47;4.12;;;;;;;8.55;79.09;98998.53;1667536;85;26371;-70
2022/09/17 02:05:53;;;;;;;5.58;4.12;;;;;;;8.52;79.04;99003.22;1677224;85;25556;-70
2022/09/17 02:08:36;;;;;;;6.62;4.80;;;;;;;8.49;79.05;99002.52;1678097;85;27345;-70
2022/09/17 02:11:09;;;;;;;6.08;4.08;;;;;;;8.47;79.34;98999.38;1678913;85;25712;-70
2022/09/17 02:14:01;;;;;;;5.35;3.95;;;;;;;8.43;79.34;98995.20;1690372;84;25521;-70
2022/09/17 02:16:32;;;;;;;7.25;4.17;;;;;;;8.40;79.52;98986.38;1708094;84;26170;-71
2022/09/17 02:19:16;;;;;;;4.45;4.00;;;;;;;8.36;79.30;98986.25;1696422;84;25733;-69
2022/09/17 02:22:12;;;;;;;5.00;3.72;;;;;;;8.33;79.57;98982.84;1720178;83;27424;-70
2022/09/17 02:24:53;;;;;;;5.22;3.60;;;;;;;8.27;79.44;98984.70;1716181;83;25752;-70
2022/09/17 02:27:37;;;;;;;5.72;3.87;;;;;;;8.26;79.51;98983.11;1723896;83;25630;-70
2022/09/17 02:30:05;;;;;;;5.45;3.55;;;;;;;8.23;79.71;98979.96;1721264;83;26335;-70
2022/09/17 02:32:32;;;;;;;6.95;4.00;;;;;;;8.19;79.81;98978.27;1712622;83;25631;-69
2022/09/17 02:34:58;;;;;;;4.15;3.75;;;;;;;8.17;79.82;98977.23;1720938;83;26560;-69
2022/09/17 02:37:26;;;;;;;4.80;3.87;;;;;;;8.16;79.74;98975.64;1720805;83;25840;-69
2022/09/17 02:39:53;;;;;;;6.53;3.60;;;;;;;8.13;79.86;98977.64;1720938;83;25451;-69
2022/09/17 02:42:36;;;;;;;5.10;3.75;;;;;;;8.10;79.98;98986.36;1717546;83;25712;-70
2022/09/17 02:45:41;;;;;;;6.05;4.47;;;;;;;8.06;79.90;98985.44;1706240;83;25725;-71
2022/09/17 02:48:38;;;;;;;7.00;4.00;;;;;;;8.02;80.04;98996.63;1720981;83;27296;-71
2022/09/17 02:51:32;;;;;;;8.65;4.40;;;;;;;7.95;79.88;98994.44;1711454;83;25453;-72
2022/09/17 02:54:19;;;;;;;8.15;4.10;;;;;;;7.92;80.34;98991.61;1720867;83;25686;-72
2022/09/17 02:57:27;;;;;;;6.67;4.45;;;;;;;7.87;80.55;98991.22;1659654;85;25721;-71
2022/09/17 03:00:06;;;;;;;5.97;3.73;;;;;;;7.82;80.60;98986.80;1643989;87;25417;-69
2022/09/17 03:02:42;;;;;;;5.40;4.08;;;;;;;7.80;80.68;98989.59;1650503;87;27390;-70
2022/09/17 03:05:10;;;;;;;11.80;4.55;;;;;;;7.75;80.84;98990.55;1648690;87;25666;-70
2022/09/17 03:07:37;;;;;;;7.15;4.12;;;;;;;7.74;80.83;98988.95;1650454;87;25813;-70
2022/09/17 03:10:05;;;;;;;5.35;4.17;;;;;;;7.72;81.00;98983.67;1708745;83;27720;-70
2022/09/17 03:12:32;;;;;;;6.35;4.33;;;;;;;7.71;80.92;98986.12;1720898;83;25486;-70
2022/09/17 03:14:58;;;;;;;4.72;4.12;;;;;;;7.67;81.06;98988.09;1720775;83;27352;-70
2022/09/17 03:17:24;;;;;;;7.20;4.42;;;;;;;7.66;81.14;98989.77;1720862;83;25391;-70
2022/09/17 03:19:50;;;;;;;8.75;4.53;;;;;;;7.65;81.20;98985.51;1720847;83;30028;-70
2022/09/17 03:22:16;;;;;;;4.70;3.62;;;;;;;7.64;81.26;98986.61;1720788;83;25758;-69
2022/09/17 03:24:42;;;;;;;5.67;4.45;;;;;;;7.64;81.17;98986.61;1650413;87;25644;-70
2022/09/17 03:27:08;;;;;;;7.45;4.15;;;;;;;7.61;81.35;98986.70;1720864;83;28091;-69
2022/09/17 03:29:34;;;;;;;8.33;4.47;;;;;;;7.62;81.37;98988.27;1722705;83;25541;-70
2022/09/17 03:32:01;;;;;;;6.12;4.37;;;;;;;7.60;81.62;98982.99;1724765;83;25543;-70
2022/09/17 03:34:27;;;;;;;5.90;4.22;;;;;;;7.59;81.63;98986.22;1724697;83;27820;-70
2022/09/17 03:36:53;;;;;;;6.58;4.75;;;;;;;7.60;81.63;98981.64;1714920;83;25736;-70
2022/09/17 03:39:20;;;;;;;7.45;3.85;;;;;;;7.60;81.80;98982.42;1721133;83;29413;-70
2022/09/17 03:41:46;;;;;;;5.67;4.00;;;;;;;7.60;81.66;98980.30;1707393;83;25602;-70
2022/09/17 03:44:12;;;;;;;6.03;4.30;;;;;;;7.59;81.74;98983.52;1721752;83;25786;-70
2022/09/17 03:46:38;;;;;;;6.90;4.00;;;;;;;7.57;81.69;98984.41;1715321;83;25765;-70
2022/09/17 03:49:04;;;;;;;12.07;4.33;;;;;;;7.56;81.82;98977.47;1718928;83;32351;-70
2022/09/17 03:51:30;;;;;;;8.28;4.37;;;;;;;7.56;82.25;98980.69;1724712;83;27337;-70
2022/09/17 03:53:56;;;;;;;6.83;4.47;;;;;;;7.54;82.17;98976.97;1724625;83;25610;-70
2022/09/17 03:56:23;;;;;;;6.62;4.45;;;;;;;7.54;82.19;98982.91;1715198;83;25763;-70
2022/09/17 03:58:49;;;;;;;8.83;4.78;;;;;;;7.53;82.15;98984.83;1722132;81;25602;-70
2022/09/17 04:01:15;;;;;;;6.40;5.60;;;;;;;7.52;82.07;98980.54;1724583;83;25706;-70
2022/09/17 04:03:41;;;;;;;7.08;4.40;;;;;;;7.54;82.32;98982.91;1724681;83;27359;-70
2022/09/17 04:06:07;;;;;;;6.37;4.17;;;;;;;7.53;82.24;98980.79;1724578;83;33561;-71
2022/09/17 04:08:35;;;;;;;8.10;4.55;;;;;;;7.52;82.27;98974.38;1724735;83;25470;-71
2022/09/17 04:11:02;;;;;;;11.45;4.55;;;;;;;7.54;82.47;98983.70;1722937;83;25819;-71
2022/09/17 04:13:28;;;;;;;6.67;4.50;;;;;;;7.52;82.38;98973.03;1711403;83;25560;-70
2022/09/17 04:15:54;;;;;;;7.37;4.53;;;;;;;7.52;82.46;98979.77;1724711;83;27437;-70
2022/09/17 04:18:20;;;;;;;6.30;5.58;;;;;;;7.52;82.40;98976.50;1724585;83;25639;-70
2022/09/17 04:20:46;;;;;;;8.83;4.40;;;;;;;7.52;82.65;98975.72;1724762;83;25628;-71
2022/09/17 04:23:13;;;;;;;9.60;4.65;;;;;;;7.52;82.26;98981.89;1724606;83;25622;-70
2022/09/17 04:25:39;;;;;;;6.20;4.25;;;;;;;7.52;82.39;98982.45;1724757;83;25632;-70
2022/09/17 04:28:05;;;;;;;8.48;4.35;;;;;;;7.51;82.38;98983.55;1724620;83;27556;-70
2022/09/17 04:30:32;;;;;;;5.70;4.37;;;;;;;7.50;82.33;98981.42;1721339;83;25646;-71
2022/09/17 04:32:58;;;;;;;7.00;4.05;;;;;;;7.51;82.68;98981.67;1720858;83;25549;-71
2022/09/17 04:35:24;;;;;;;8.93;4.90;;;;;;;7.51;82.65;98984.36;1719749;83;25806;-71
2022/09/17 04:37:53;;;;;;;8.10;4.30;;;;;;;7.53;82.88;98987.52;1679825;85;25467;-71
2022/09/17 04:40:21;;;;;;;8.63;4.53;;;;;;;7.53;82.89;98988.08;1675042;85;27397;-71
2022/09/17 04:42:48;;;;;;;6.80;4.20;;;;;;;7.54;83.02;98990.98;1626650;87;26312;-71
2022/09/17 04:45:14;;;;;;;6.33;4.25;;;;;;;7.54;82.96;98987.73;1611776;87;25371;-71
2022/09/17 04:47:40;;;;;;;9.65;4.80;;;;;;;7.55;83.06;98982.59;1634189;86;25678;-69
2022/09/17 04:50:07;;;;;;;9.00;4.72;;;;;;;7.56;83.10;98986.88;1650309;87;32506;-69
2022/09/17 04:52:33;;;;;;;5.65;4.50;;;;;;;7.59;83.03;98988.13;1650402;87;27350;-68
2022/09/17 04:54:59;;;;;;;7.80;4.35;;;;;;;7.58;83.05;98980.62;1650265;87;25565;-69
2022/09/17 04:57:26;;;;;;;9.90;4.37;;;;;;;7.61;83.11;98984.02;1650523;87;25573;-70
2022/09/17 04:59:52;;;;;;;7.75;4.37;;;;;;;7.63;83.19;98983.14;1650628;87;26406;-71
2022/09/17 05:02:18;;;;;;;6.10;3.80;;;;;;;7.66;83.09;98987.88;1650879;87;25616;-70
2022/09/17 05:04:44;;;;;;;5.97;4.40;;;;;;;7.69;83.22;98989.69;1721596;83;27366;-71
2022/09/17 05:07:11;;;;;;;9.45;4.80;;;;;;;7.71;83.31;98982.08;1721524;83;25410;-71
2022/09/17 05:09:37;;;;;;;8.23;4.25;;;;;;;7.74;83.56;98988.95;1715990;83;25369;-71
2022/09/17 05:12:03;;;;;;;10.00;4.72;;;;;;;7.78;83.51;98989.91;1707792;83;25667;-71
2022/09/17 05:14:29;;;;;;;4.75;4.22;;;;;;;7.81;83.62;98987.89;1713065;83;25631;-71
2022/09/17 05:16:56;;;;;;;7.97;4.08;;;;;;;7.85;83.58;98993.45;1721269;83;27341;-71
2022/09/17 05:19:22;;;;;;;8.65;3.95;;;;;;;7.92;83.80;98996.99;1720957;83;25825;-71
2022/09/17 05:21:48;;;;;;;6.72;4.30;;;;;;;7.98;83.98;98997.03;1698433;83;25468;-71
2022/09/17 05:24:14;;;;;;;8.45;4.58;;;;;;;8.06;83.92;99004.29;1720928;83;26383;-70
2022/09/17 05:26:40;;;;;;;6.45;4.30;;;;;;;8.14;84.15;99003.47;1721022;83;25762;-71
2022/09/17 05:29:06;;;;;;;6.25;4.33;;;;;;;8.23;84.06;99000.73;1709427;83;27895;-70
2022/09/17 05:31:32;;;;;;;6.70;4.17;;;;;;;8.31;84.15;98998.55;1720878;83;25569;-71
2022/09/17 05:33:59;;;;;;;9.73;4.53;;;;;;;8.41;84.23;98993.33;1688537;84;25607;-71
2022/09/17 05:36:27;;;;;;;6.95;4.15;;;;;;;8.53;84.19;98988.62;1672132;85;25862;-71
2022/09/17 05:38:53;;;;;;;8.30;4.28;;;;;;;8.64;84.12;98984.43;1678352;85;25569;-71
2022/09/17 05:41:19;;;;;;;7.90;4.12;;;;;;;8.73;83.94;98989.76;1678395;85;27384;-70
2022/09/17 05:43:45;;;;;;;7.25;4.80;;;;;;;8.86;83.99;98992.77;1650445;86;25591;-70
2022/09/17 05:46:12;;;;;;;4.75;4.25;;;;;;;8.98;84.28;98990.13;1721076;83;25438;-71
2022/09/17 05:48:38;;;;;;;7.22;4.55;;;;;;;9.16;84.27;98994.82;1720941;83;25691;-70
2022/09/17 05:51:04;;;;;;;5.08;3.95;;;;;;;9.31;83.84;98991.27;1716552;83;25751;-71
2022/09/17 05:53:30;;;;;;;6.00;3.83;;;;;;;9.47;83.61;98985.48;1720999;83;28167;-70
2022/09/17 05:55:58;;;;;;;4.90;4.37;;;;;;;9.61;83.48;98979.78;1720878;83;25722;-71
2022/09/17 05:58:25;;;;;;;5.60;4.42;;;;;;;9.77;83.48;98984.53;1721076;83;25545;-70
2022/09/17 06:00:52;;;;;;;5.28;3.60;;;;;;;9.93;83.46;98980.60;1650488;87;25696;-69
2022/09/17 06:03:21;;;;;;;5.70;3.80;;;;;;;10.09;82.92;98976.90;1721011;83;27004;-69
2022/09/17 06:05:54;;;;;;;6.37;3.60;;;;;;;10.25;82.44;98977.60;1721118;83;27410;-69
2022/09/17 06:08:21;;;;;;;5.60;4.10;;;;;;;10.44;82.04;98977.83;1720828;83;25456;-69
2022/09/17 06:10:48;;;;;;;3.65;3.35;;;;;;;10.59;81.19;98971.48;1650474;86;25490;-69
2022/09/17 06:13:17;;;;;;;6.15;3.12;;;;;;;10.76;80.67;98969.89;1650423;86;25588;-70
2022/09/17 06:15:50;;;;;;;5.40;3.33;;;;;;;10.94;80.47;98969.61;1719095;83;26345;-69
2022/09/17 06:18:17;;;;;;;4.72;3.50;;;;;;;11.13;80.49;98963.56;1720667;83;28170;-71
2022/09/17 06:20:59;;;;;;;4.75;2.95;;;;;;;11.33;79.21;98963.91;1650174;87;25733;-69
2022/09/17 06:23:27;;;;;;;5.20;2.85;;;;;;;11.43;78.66;98955.86;1645998;87;25548;-69
2022/09/17 06:25:58;;;;;;;5.35;2.80;;;;;;;11.66;78.99;98960.11;1650231;87;26172;-71
2022/09/17 06:28:26;;;;;;;4.83;2.77;;;;;;;11.88;78.13;98960.66;1720734;83;25771;-71
2022/09/17 06:30:54;;;;;;;4.72;2.50;;;;;;;12.11;78.72;98962.22;1720188;83;28304;-70
2022/09/17 06:33:22;;;;;;;4.60;2.60;;;;;;;12.32;77.15;98946.42;1712187;83;25712;-68
2022/09/17 06:35:59;;;;;;;4.65;2.75;;;;;;;12.57;77.37;98955.69;1695660;83;25701;-69
2022/09/17 06:38:27;;;;;;;9.95;2.37;;;;;;;12.78;76.30;98953.99;1711620;83;25743;-69
2022/09/17 06:40:54;;;;;;;5.10;2.45;;;;;;;12.96;74.55;98952.23;1720759;83;25399;-70
2022/09/17 06:43:22;;;;;;;6.15;2.12;;;;;;;13.05;73.17;98946.00;1719957;83;27306;-70
2022/09/17 06:45:55;;;;;;;8.43;3.62;;;;;;;13.13;72.83;98943.65;1709905;83;25711;-69
2022/09/17 06:48:23;;;;;;;4.87;2.00;;;;;;;13.31;72.75;98943.97;1672886;85;25622;-70
2022/09/17 06:50:53;;;;;;;4.67;2.30;;;;;;;13.53;73.34;98932.16;1640024;85;25736;-70
2022/09/17 06:53:20;;;;;;;11.10;2.47;;;;;;;13.78;72.76;98927.94;1673034;85;25734;-70
2022/09/17 06:55:47;;;;;;;5.33;2.22;;;;;;;14.05;72.99;98929.91;1661438;85;27447;-70
2022/09/17 06:58:13;;;;;;;3.92;1.80;;;;;;;14.43;72.61;98934.34;1676249;85;25743;-70
2022/09/17 07:00:41;;;;;;;5.22;1.85;;;;;;;14.65;71.14;98944.96;1663433;85;25703;-70
2022/09/17 07:03:09;;;;;;;4.33;1.70;;;;;;;14.81;69.29;98951.56;1675778;85;26352;-71
2022/09/17 07:05:35;;;;;;;3.85;2.10;;;;;;;15.06;69.61;98949.73;1659731;85;25605;-72
2022/09/17 07:08:03;;;;;;;2.62;1.60;;;;;;;15.17;66.62;98949.84;1647245;85;27462;-70
2022/09/17 07:10:30;;;;;;;5.65;1.70;;;;;;;15.05;66.44;98950.33;1671186;85;25689;-69
2022/09/17 07:12:58;;;;;;;6.25;2.10;;;;;;;15.04;66.33;98956.14;1664413;85;25815;-71
2022/09/17 07:15:24;;;;;;;6.10;1.65;;;;;;;15.00;65.54;98951.21;1670995;85;25707;-70
2022/09/17 07:17:50;;;;;;;3.17;1.70;;;;;;;14.92;65.23;98956.58;1655459;85;25785;-69
2022/09/17 07:20:17;;;;;;;3.98;1.75;;;;;;;14.89;66.58;98957.31;1668381;85;27371;-71
2022/09/17 07:22:47;;;;;;;5.62;1.95;;;;;;;14.98;66.47;98958.97;1665147;85;25351;-71
2022/09/17 07:25:14;;;;;;;4.85;2.15;;;;;;;14.98;65.87;98960.33;1667449;85;25843;-70
2022/09/17 07:27:40;;;;;;;5.80;1.75;;;;;;;14.88;63.87;98954.95;1666138;85;26301;-75
2022/09/17 07:30:09;;;;;;;6.42;1.92;;;;;;;14.71;64.35;98967.98;1675449;84;25621;-76
2022/09/17 07:32:36;;;;;;;3.58;1.70;;;;;;;14.54;64.22;98967.92;1680190;84;27310;-78
2022/09/17 07:35:03;;;;;;;3.90;1.60;;;;;;;14.42;64.64;98976.31;1676174;84;25761;-80
2022/09/17 07:37:29;;;;;;;2.98;1.67;;;;;;;14.28;64.32;98983.66;1689883;84;25648;-76
2022/09/17 07:39:55;;;;;;;3.62;1.70;;;;;;;14.11;64.31;98986.89;1685924;84;25820;-71
2022/09/17 07:42:21;;;;;;;3.52;2.05;;;;;;;13.96;64.23;98985.31;1680577;84;25573;-69
2022/09/17 07:44:47;;;;;;;3.50;1.72;;;;;;;13.76;64.40;98991.38;1693925;84;27913;-72
2022/09/17 07:47:14;;;;;;;6.03;2.30;;;;;;;13.59;64.71;98995.34;1689710;84;25691;-72
2022/09/17 07:49:42;;;;;;;6.03;2.33;;;;;;;13.48;65.26;98991.64;1689763;84;25639;-70
2022/09/17 07:52:08;;;;;;;2.55;1.72;;;;;;;13.39;65.50;98998.66;1690616;84;25785;-67
2022/09/17 07:54:37;;;;;;;3.92;1.90;;;;;;;13.31;65.79;98996.92;1724370;83;25633;-74
2022/09/17 07:57:04;;;;;;;5.53;2.25;;;;;;;13.24;66.08;98996.78;1724340;83;27310;-73
2022/09/17 07:59:30;;;;;;;4.92;2.87;;;;;;;13.16;66.15;99002.66;1723741;83;25392;-72
2022/09/17 08:01:56;;;;;;;5.58;2.37;;;;;;;13.10;66.61;98996.52;1724071;82;25611;-72
2022/09/17 08:04:22;;;;;;;3.87;2.33;;;;;;;13.04;66.74;98991.38;1722375;82;25753;-71
2022/09/17 08:06:49;;;;;;;3.52;2.05;;;;;;;13.00;66.77;98997.86;1723405;82;25606;-73
2022/09/17 08:09:17;;;;;;;4.40;2.00;;;;;;;12.91;66.85;99000.78;1723263;83;27352;-73
2022/09/17 08:11:44;;;;;;;6.77;2.33;;;;;;;12.85;67.26;99004.91;1723477;83;25704;-71
2022/09/17 08:14:13;;;;;;;3.80;2.30;;;;;;;12.80;67.40;99002.48;1723316;82;25765;-72
2022/09/17 08:16:40;;;;;;;6.97;3.33;;;;;;;12.74;67.70;98993.84;1723793;82;29007;-71
2022/09/17 08:19:09;;;;;;;5.20;2.22;;;;;;;12.78;68.37;98992.55;1724356;82;25724;-68
2022/09/17 08:21:35;;;;;;;5.22;2.50;;;;;;;12.83;68.37;98987.63;1723547;83;27496;-69
2022/09/17 08:24:01;;;;;;;6.87;2.52;;;;;;;12.84;68.22;98997.35;1723302;83;25668;-69
2022/09/17 08:26:28;;;;;;;5.85;2.47;;;;;;;12.82;68.21;98996.92;1704110;83;25620;-69
2022/09/17 08:28:55;;;;;;;5.10;2.60;;;;;;;12.76;68.04;99007.05;1723499;83;25676;-68
2022/09/17 08:31:25;;;;;;;6.78;2.83;;;;;;;12.66;68.16;98998.31;1689997;82;25595;-69
2022/09/17 08:33:52;;;;;;;4.55;2.52;;;;;;;12.62;68.35;99015.09;1689861;84;28025;-69
2022/09/17 08:36:21;;;;;;;4.33;2.45;;;;;;;12.57;68.41;99023.50;1690813;84;25654;-70
2022/09/17 08:38:52;;;;;;;7.53;2.52;;;;;;;12.53;68.40;99025.33;1699019;84;25434;-73
2022/09/17 08:41:23;;;;;;;7.95;2.50;;;;;;;12.49;68.67;99032.03;1698339;84;26319;-71
2022/09/17 08:44:19;;;;;;;3.33;2.98;;;;;;;12.49;68.99;99033.39;1698977;84;25554;-72
2022/09/17 08:47:00;;;;;;;5.40;2.75;;;;;;;12.46;68.99;99042.25;1670504;85;27310;-71
2022/09/17 08:49:52;;;;;;;4.12;2.92;;;;;;;12.39;69.16;99035.86;1669027;85;25807;-71
2022/09/17 08:52:49;;;;;;;7.70;3.00;;;;;;;12.35;69.21;99039.06;1670231;84;25603;-72
2022/09/17 08:55:43;;;;;;;3.60;2.55;;;;;;;12.37;69.55;99044.34;1670338;84;26168;-72
2022/09/17 08:58:55;;;;;;;3.30;2.58;;;;;;;12.37;69.53;99032.14;1631985;87;25533;-71
2022/09/17 09:01:50;;;;;;;8.28;3.33;;;;;;;12.36;69.82;99031.94;1638866;87;27493;-72
2022/09/17 09:04:53;;;;;;;4.80;3.08;;;;;;;12.36;69.89;99033.84;1670069;84;25703;-73
2022/09/17 09:07:26;;;;;;;5.58;2.75;;;;;;;12.34;70.03;99038.26;1670316;85;25713;-72
2022/09/17 09:10:15;;;;;;;4.83;2.70;;;;;;;12.39;70.56;99037.21;1670183;85;25816;-71
2022/09/17 09:12:43;;;;;;;5.97;2.58;;;;;;;12.44;70.44;99028.81;1670110;84;25720;-72
2022/09/17 09:15:36;;;;;;;4.33;2.70;;;;;;;12.59;70.95;99021.80;1670499;85;27338;-72
2022/09/17 09:18:21;;;;;;;6.97;2.55;;;;;;;12.67;70.61;99022.95;1664538;84;25829;-71
2022/09/17 09:20:55;;;;;;;4.50;2.50;;;;;;;12.78;70.80;99014.27;1670155;85;25700;-71
2022/09/17 09:23:58;;;;;;;3.80;2.40;;;;;;;12.87;70.20;99022.42;1693879;84;25674;-71
2022/09/17 09:27:02;;;;;;;4.78;2.58;;;;;;;12.93;69.98;99020.79;1698803;84;25455;-71
2022/09/17 09:29:40;;;;;;;6.50;2.10;;;;;;;13.04;69.86;99015.80;1632078;87;27369;-71
2022/09/17 09:32:53;;;;;;;4.90;2.00;;;;;;;13.06;69.43;99023.02;1639977;87;25882;-70
2022/09/17 09:35:29;;;;;;;2.25;2.00;;;;;;;13.10;69.38;99031.23;1614763;87;25682;-71
2022/09/17 09:38:10;;;;;;;2.62;1.92;;;;;;;13.09;69.30;99036.42;1653413;86;26192;-70
2022/09/17 09:40:47;;;;;;;2.37;2.00;;;;;;;13.06;69.26;99026.31;1640242;87;25646;-70
2022/09/17 09:43:25;;;;;;;5.47;1.70;;;;;;;13.04;69.20;99023.95;1668228;86;27346;-69
2022/09/17 09:46:05;;;;;;;3.25;2.08;;;;;;;13.04;69.09;99023.95;1614726;87;25689;-71
2022/09/17 09:49:01;;;;;;;2.10;1.90;;;;;;;13.00;69.11;99016.86;1641519;87;25752;-71
2022/09/17 09:52:08;;;;;;;4.00;2.05;;;;;;;12.99;69.21;99018.80;1641500;86;26196;-72
2022/09/17 09:55:14;;;;;;;5.75;1.87;;;;;;;13.01;69.23;99023.88;1642065;87;25695;-72
2022/09/17 09:57:50;;;;;;;2.58;1.70;;;;;;;13.01;69.17;99021.16;1624582;87;27345;-70
2022/09/17 10:00:37;;;;;;;1.70;1.60;;;;;;;12.94;69.39;99024.51;1643190;87;25603;-70
2022/09/17 10:03:25;;;;;;;2.15;1.87;;;;;;;12.94;69.09;99031.30;1621996;87;25868;-70
2022/09/17 10:06:02;;;;;;;4.08;2.08;;;;;;;12.96;69.23;99035.02;1703984;83;27473;-70
2022/09/17 10:08:33;;;;;;;2.58;1.55;;;;;;;13.02;69.28;99030.28;1650213;87;25734;-70
2022/09/17 10:11:13;;;;;;;4.62;2.02;;;;;;;13.03;68.82;99029.73;1720239;83;27491;-71
2022/09/17 10:14:01;;;;;;;2.35;2.00;;;;;;;13.01;68.94;99026.01;1720192;83;25570;-70
2022/09/17 10:16:29;;;;;;;3.35;1.65;;;;;;;13.07;69.04;99023.78;1683922;84;25689;-70
2022/09/17 10:19:07;;;;;;;4.83;1.75;;;;;;;13.10;69.07;99019.01;1695651;83;26174;-70
2022/09/17 10:21:42;;;;;;;1.92;1.67;;;;;;;13.17;69.13;99023.22;1676003;84;25761;-69
2022/09/17 10:24:29;;;;;;;4.40;1.90;;;;;;;13.17;68.58;99018.37;1679844;84;25885;-72
2022/09/17 10:27:06;;;;;;;4.65;1.52;;;;;;;13.15;68.58;99032.30;1690856;83;25870;-71
2022/09/17 10:29:33;;;;;;;2.60;1.62;;;;;;;13.11;68.44;99042.86;1694238;84;25723;-71
2022/09/17 10:32:01;;;;;;;2.08;1.70;;;;;;;13.05;68.64;99048.58;1694467;84;25749;-69
2022/09/17 10:34:30;;;;;;;4.30;2.00;;;;;;;13.01;69.17;99048.30;1682628;84;26311;-69
2022/09/17 10:36:57;;;;;;;2.98;2.17;;;;;;;12.98;69.68;99056.56;1676942;84;27489;-70
2022/09/17 10:39:47;;;;;;;2.95;2.15;;;;;;;12.93;70.05;99052.00;1675014;84;25780;-69
2022/09/17 10:42:17;;;;;;;2.15;1.92;;;;;;;12.93;70.63;99053.36;1645745;87;26061;-70
2022/09/17 10:44:53;;;;;;;4.70;1.70;;;;;;;12.86;70.59;99057.48;1694642;84;25756;-70
2022/09/17 10:47:35;;;;;;;2.95;1.92;;;;;;;12.86;71.33;99062.13;1708750;83;26133;-70
2022/09/17 10:50:10;;;;;;;4.10;2.30;;;;;;;12.90;71.97;99060.27;1720278;83;27322;-70
2022/09/17 10:52:41;;;;;;;2.30;2.10;;;;;;;12.94;72.16;99066.58;1717482;83;25653;-69
2022/09/17 10:55:29;;;;;;;2.62;2.00;;;;;;;12.99;72.41;99071.73;1720410;83;25653;-70
2022/09/17 10:58:07;;;;;;;3.98;2.27;;;;;;;13.04;72.44;99072.80;1720618;83;25683;-71
2022/09/17 11:00:51;;;;;;;3.75;2.08;;;;;;;13.07;72.37;99074.01;1719591;83;25699;-71
2022/09/17 11:03:45;;;;;;;2.62;2.08;;;;;;;13.09;72.23;99071.72;1720294;83;27940;-70
2022/09/17 11:06:42;;;;;;;3.72;2.05;;;;;;;13.07;72.25;99074.78;1720392;83;25767;-70
2022/09/17 11:09:34;;;;;;;2.62;1.82;;;;;;;13.04;72.14;99087.73;1719994;83;25636;-71
2022/09/17 11:12:44;;;;;;;2.47;2.10;;;;;;;13.01;72.33;99088.44;1647270;86;25711;-72
2022/09/17 11:15:28;;;;;;;3.65;2.90;;;;;;;12.99;72.54;99091.27;1659215;86;25652;-71
2022/09/17 11:18:33;;;;;;;3.33;2.67;;;;;;;12.95;72.87;99087.13;1664946;86;28287;-71
2022/09/17 11:21:23;;;;;;;8.38;3.17;;;;;;;12.90;72.79;99075.19;1660760;86;25757;-71
2022/09/17 11:24:23;;;;;;;;;;;;;;;12.91;73.51;99063.20;1666881;86;25518;-70
2022/09/17 11:27:24;;;;;;;2.52;2.00;;;;;;;12.92;73.35;99062.05;1664980;86;26193;-71
2022/09/17 11:30:17;;;;;;;4.10;1.87;;;;;;;13.02;73.53;99066.92;1665199;86;25565;-70
2022/09/17 11:33:05;;;;;;;2.20;2.00;;;;;;;13.07;73.47;99062.57;1664078;86;27924;-69
2022/09/17 11:36:03;;;;;;;3.58;2.12;;;;;;;13.16;73.32;99052.89;1665012;86;25858;-71
2022/09/17 11:38:39;;;;;;;2.00;1.75;;;;;;;13.21;72.58;99057.23;1663256;86;26004;-71
2022/09/17 11:41:22;;;;;;;5.25;1.70;;;;;;;13.18;72.43;99057.38;1663812;86;26268;-71
2022/09/17 11:44:11;;;;;;;2.98;1.90;;;;;;;13.19;72.45;99055.45;1712124;83;25580;-70
2022/09/17 11:46:59;;;;;;;3.57;1.87;;;;;;;13.23;72.36;99038.09;1724585;83;27316;-71
2022/09/17 11:49:49;;;;;;;3.10;2.10;;;;;;;13.35;73.39;99040.46;1721728;83;25541;-70
2022/09/17 11:52:30;;;;;;;1.98;1.62;;;;;;;13.57;72.68;99038.95;1715496;83;25410;-69
2022/09/17 11:55:25;;;;;;;2.70;2.00;;;;;;;13.66;71.70;99050.98;1703879;83;26181;-70
2022/09/17 11:57:59;;;;;;;2.72;1.87;;;;;;;13.69;71.48;99048.32;1724244;83;25677;-70
2022/09/17 12:00:30;;;;;;;2.35;2.12;;;;;;;13.73;71.11;99051.88;1722744;83;27412;-71
2022/09/17 12:03:05;;;;;;;2.72;1.80;;;;;;;13.75;70.89;99050.16;1724088;83;25670;-71
2022/09/17 12:05:40;;;;;;;3.60;2.08;;;;;;;13.72;70.35;99057.09;1721899;83;25707;-70
2022/09/17 12:08:20;;;;;;;3.47;1.80;;;;;;;13.66;70.21;99054.47;1723485;82;25838;-70
2022/09/17 12:11:18;;;;;;;2.10;1.70;;;;;;;13.68;70.42;99057.61;1724217;83;25809;-70
2022/09/17 12:14:22;;;;;;;2.10;1.82;;;;;;;13.71;70.20;99049.33;1724239;83;27417;-70
2022/09/17 12:16:56;;;;;;;2.00;1.80;;;;;;;13.75;70.23;99059.09;1699208;83;25743;-71